Time;durP1;ratioP1;P1;durP2;ratioP2;P2;SDS_P1;SDS_P2;PMS_P1;PMS_P2;Temp;Humidity;BMP_temperature;BMP_pressure;BME280_temperature;BME280_humidity;BME280_pressure;Samples;Min_cycle;Max_cycle;Signal;HPM_P1;HPM_P2
2022/05/20 00:01:55;;;;;;;5.35;3.15;;;;;;;23.12;37.00;101444.06;5090578;28;20023;-50
2022/05/20 00:04:21;;;;;;;6.72;2.80;;;;;;;23.09;37.13;101440.88;5089167;28;20036;-49
2022/05/20 00:06:46;;;;;;;3.83;3.33;;;;;;;23.05;37.84;101445.72;5082626;28;20668;-51
2022/05/20 00:09:11;;;;;;;8.35;3.17;;;;;;;22.98;38.03;101456.22;5081983;28;20049;-49
2022/05/20 00:11:37;;;;;;;5.68;3.00;;;;;;;22.94;38.79;101456.66;5085493;28;20038;-51
2022/05/20 00:14:05;;;;;;;8.00;3.40;;;;;;;22.87;39.27;101460.94;5083184;28;20040;-49
2022/05/20 00:16:31;;;;;;;4.40;3.42;;;;;;;22.79;39.82;101453.66;5088100;28;20089;-50
2022/05/20 00:18:56;;;;;;;5.05;3.60;;;;;;;22.73;40.38;101462.31;5078034;28;20032;-49
2022/05/20 00:21:22;;;;;;;5.25;3.50;;;;;;;22.66;40.72;101462.06;5091202;28;20036;-52
2022/05/20 00:23:47;;;;;;;4.40;3.60;;;;;;;22.61;41.16;101461.69;5088618;28;20078;-50
2022/05/20 00:26:13;;;;;;;4.78;3.72;;;;;;;22.57;41.37;101471.84;5087422;28;20483;-49
2022/05/20 00:28:38;;;;;;;7.45;3.47;;;;;;;22.51;42.11;101475.16;5085646;28;20104;-51
2022/05/20 00:31:09;;;;;;;4.68;3.13;;;;;;;22.47;42.81;101482.63;5081889;28;20050;-51
2022/05/20 00:33:37;;;;;;;5.40;3.08;;;;;;;22.42;43.29;101476.03;5088694;28;20039;-49
2022/05/20 00:36:03;;;;;;;6.30;3.03;;;;;;;22.37;43.90;101481.81;5089011;28;20080;-51
2022/05/20 00:38:28;;;;;;;4.95;2.92;;;;;;;22.31;44.34;101487.78;5085244;28;20103;-51
2022/05/20 00:40:55;;;;;;;3.60;3.05;;;;;;;22.28;45.09;101482.72;5093064;28;20089;-52
2022/05/20 00:43:29;;;;;;;7.22;2.90;;;;;;;22.20;45.46;101486.13;5077157;28;20020;-48
2022/05/20 00:46:00;;;;;;;6.07;2.67;;;;;;;22.15;46.00;101478.53;5089783;28;20028;-49
2022/05/20 00:48:27;;;;;;;5.68;2.65;;;;;;;22.11;46.52;101482.50;5086165;28;20115;-51
2022/05/20 00:51:14;;;;;;;3.78;2.67;;;;;;;22.10;46.78;101502.25;5092427;28;20039;-52
2022/05/20 00:54:07;;;;;;;2.45;2.13;;;;;;;22.02;47.46;101488.72;5090916;28;20055;-52
2022/05/20 00:56:52;;;;;;;5.63;2.33;;;;;;;21.93;48.15;101499.31;5085408;28;20028;-51
2022/05/20 00:59:23;;;;;;;4.38;2.38;;;;;;;21.87;47.96;101501.75;5083689;28;20066;-52
2022/05/20 01:01:51;;;;;;;3.85;2.30;;;;;;;21.84;48.85;101497.53;5089319;28;20024;-52
2022/05/20 01:04:17;;;;;;;4.45;2.40;;;;;;;21.74;49.13;101496.69;5084546;28;20046;-50
2022/05/20 01:06:43;;;;;;;4.47;2.15;;;;;;;21.71;49.16;101496.97;5088837;28;20032;-50
2022/05/20 01:09:09;;;;;;;3.30;2.17;;;;;;;21.73;49.34;101497.66;5081420;28;20507;-48
2022/05/20 01:11:36;;;;;;;3.13;2.28;;;;;;;21.75;50.03;101503.72;5091231;28;20032;-49
2022/05/20 01:14:03;;;;;;;3.83;2.22;;;;;;;21.76;49.80;101508.09;5083574;28;20957;-49
2022/05/20 01:16:29;;;;;;;4.43;2.40;;;;;;;21.72;50.08;101514.72;5089244;28;20046;-52
2022/05/20 01:18:56;;;;;;;2.20;2.00;;;;;;;21.71;50.27;101521.06;5084341;28;20034;-50
2022/05/20 01:21:22;;;;;;;2.40;2.20;;;;;;;21.71;50.58;101521.06;5088161;28;20074;-49
2022/05/20 01:23:48;;;;;;;2.10;1.80;;;;;;;21.69;51.06;101531.09;5087301;28;20042;-49
2022/05/20 01:26:14;;;;;;;4.38;2.03;;;;;;;21.67;51.08;101541.13;5085921;28;20032;-51
2022/05/20 01:28:39;;;;;;;4.32;2.05;;;;;;;21.64;51.45;101534.19;5083125;28;20032;-50
2022/05/20 01:31:14;;;;;;;2.97;2.20;;;;;;;21.63;51.94;101535.16;5080961;28;20533;-52
2022/05/20 01:33:41;;;;;;;5.07;2.20;;;;;;;21.56;51.97;101545.56;5081694;28;20020;-49
2022/05/20 01:36:10;;;;;;;3.40;2.00;;;;;;;21.45;52.36;101545.72;5088276;28;20567;-51
2022/05/20 01:38:36;;;;;;;3.58;2.10;;;;;;;21.41;52.39;101550.53;5088437;28;20125;-51
2022/05/20 01:41:11;;;;;;;3.78;2.10;;;;;;;21.45;52.61;101545.72;5091377;28;20029;-52
2022/05/20 01:43:39;;;;;;;3.05;1.98;;;;;;;21.50;52.60;101547.97;5081843;28;20024;-50
2022/05/20 01:46:26;;;;;;;2.92;2.10;;;;;;;21.51;52.59;101555.88;5083406;28;20032;-49
2022/05/20 01:49:20;;;;;;;9.25;3.63;;;;;;;21.51;52.47;101547.84;5092585;28;20088;-49
2022/05/20 01:51:48;;;;;;;9.63;2.30;;;;;;;21.47;52.82;101543.75;5087544;28;20028;-48
2022/05/20 01:54:25;;;;;;;3.03;2.25;;;;;;;21.46;53.06;101548.28;5089880;28;20036;-48
2022/05/20 01:56:58;;;;;;;2.85;2.33;;;;;;;21.39;53.44;101541.78;5081205;28;20020;-49
2022/05/20 01:59:38;;;;;;;4.25;2.30;;;;;;;21.29;54.25;101554.31;5084980;28;20038;-49
2022/05/20 02:02:08;;;;;;;4.28;2.10;;;;;;;21.23;53.76;101553.06;5085180;28;20031;-50
2022/05/20 02:04:43;;;;;;;3.43;1.87;;;;;;;21.17;54.62;101553.59;5088585;28;20032;-51
2022/05/20 02:07:16;;;;;;;4.25;2.50;;;;;;;21.15;54.81;101547.53;5085399;28;20020;-50
2022/05/20 02:09:53;;;;;;;5.25;2.50;;;;;;;21.11;55.09;101555.00;5083245;28;20024;-51
2022/05/20 02:12:22;;;;;;;4.32;2.60;;;;;;;21.08;54.81;101549.09;5095891;28;20024;-48
2022/05/20 02:15:09;;;;;;;5.72;2.17;;;;;;;21.13;55.36;101557.53;5088408;28;20028;-48
2022/05/20 02:17:41;;;;;;;2.95;2.50;;;;;;;21.11;54.84;101554.13;5089284;28;20031;-48
2022/05/20 02:20:34;;;;;;;4.25;2.50;;;;;;;21.09;55.18;101564.16;5087303;28;20050;-49
2022/05/20 02:23:07;;;;;;;4.35;2.78;;;;;;;21.09;55.01;101566.84;5087223;28;20066;-48
2022/05/20 02:25:36;;;;;;;5.47;2.50;;;;;;;21.05;55.57;101570.75;5084895;28;20032;-49
2022/05/20 02:28:18;;;;;;;3.65;2.88;;;;;;;20.96;55.54;101567.91;5087046;28;20446;-51
2022/05/20 02:30:44;;;;;;;3.60;2.60;;;;;;;20.91;55.79;101570.16;5084863;28;20388;-50
2022/05/20 02:33:14;;;;;;;4.93;3.13;;;;;;;20.91;56.08;101570.16;5089570;28;20039;-48
2022/05/20 02:35:40;;;;;;;3.97;2.55;;;;;;;20.89;56.27;101577.47;5089837;28;20035;-51
2022/05/20 02:38:12;;;;;;;4.47;2.80;;;;;;;20.84;56.56;101571.69;5087270;28;20036;-50
2022/05/20 02:40:40;;;;;;;4.43;3.15;;;;;;;20.80;56.19;101570.25;5081241;28;21639;-48
2022/05/20 02:43:06;;;;;;;3.33;3.00;;;;;;;20.80;56.61;101570.25;5086983;28;20492;-51
2022/05/20 02:45:32;;;;;;;4.13;3.33;;;;;;;20.79;56.73;101573.94;5087506;28;20085;-48
2022/05/20 02:47:58;;;;;;;5.25;3.90;;;;;;;20.74;57.08;101570.78;5072887;28;20019;-49
2022/05/20 02:50:23;;;;;;;6.05;3.13;;;;;;;20.68;57.14;101566.81;5081248;28;20627;-51
2022/05/20 02:52:49;;;;;;;4.63;3.38;;;;;;;20.64;57.20;101568.94;5086043;28;20032;-51
2022/05/20 02:55:15;;;;;;;7.45;3.90;;;;;;;20.59;57.41;101565.78;5084861;28;20102;-49
2022/05/20 02:57:42;;;;;;;11.52;4.88;;;;;;;20.51;57.68;101578.97;5092328;28;20027;-52
2022/05/20 03:05:36;;;;;;;6.28;4.80;;;;;;;20.29;58.32;101579.97;5093285;28;20035;-50
2022/05/20 03:08:03;;;;;;;8.98;5.07;;;;;;;20.27;58.85;101572.09;5087227;28;20035;-48
2022/05/20 03:10:28;;;;;;;6.00;5.18;;;;;;;20.26;58.80;101581.09;5081212;28;20081;-48
2022/05/20 03:13:06;;;;;;;7.32;5.95;;;;;;;20.18;59.17;101573.75;5083588;28;20024;-49
2022/05/20 03:15:33;;;;;;;9.43;6.00;;;;;;;20.15;59.28;101576.66;5083896;28;20032;-49
2022/05/20 03:17:59;;;;;;;6.60;5.90;;;;;;;19.99;60.12;101576.28;5084138;28;20027;-52
2022/05/20 03:20:25;;;;;;;8.02;6.20;;;;;;;19.94;59.95;101574.88;5082747;28;20032;-50
2022/05/20 03:22:50;;;;;;;7.78;6.70;;;;;;;19.97;60.09;101586.25;5088314;28;20024;-50
2022/05/20 03:25:16;;;;;;;9.07;6.20;;;;;;;20.00;60.01;101591.34;5086467;28;20199;-52
2022/05/20 03:27:41;;;;;;;7.53;6.15;;;;;;;20.00;59.83;101592.19;5089381;28;20027;-50
2022/05/20 03:30:10;;;;;;;7.30;6.47;;;;;;;20.03;59.97;101589.28;5087367;28;20036;-48
2022/05/20 03:32:37;;;;;;;8.90;5.90;;;;;;;20.01;59.88;101591.22;5083773;28;20036;-52
2022/05/20 03:35:03;;;;;;;6.82;6.13;;;;;;;19.96;60.31;101590.75;5086773;28;20036;-49
2022/05/20 03:37:28;;;;;;;8.23;6.68;;;;;;;19.95;60.26;101594.41;5089878;28;20032;-51
2022/05/20 03:39:57;;;;;;;10.40;6.50;;;;;;;19.96;60.27;101593.44;5085174;28;20176;-49
2022/05/20 03:42:23;;;;;;;6.88;6.18;;;;;;;19.98;60.39;101594.16;5089719;28;20031;-48
2022/05/20 03:44:49;;;;;;;8.68;6.85;;;;;;;20.00;60.10;101596.69;5080953;28;20507;-49
2022/05/20 03:47:14;;;;;;;7.70;6.53;;;;;;;19.98;60.56;101599.50;5081327;28;20032;-50
2022/05/20 03:49:41;;;;;;;10.93;7.53;;;;;;;20.02;60.53;101608.09;5093098;28;20052;-49
2022/05/20 03:52:07;;;;;;;9.07;6.93;;;;;;;20.04;60.39;101609.63;5085210;28;20056;-51
2022/05/20 03:54:33;;;;;;;8.18;7.32;;;;;;;20.07;60.39;101613.91;5080594;28;20459;-48
2022/05/20 03:56:59;;;;;;;7.47;6.68;;;;;;;20.14;60.24;101619.56;5085215;28;20070;-47
2022/05/20 03:59:26;;;;;;;9.32;7.70;;;;;;;20.19;60.19;101625.38;5080599;28;20024;-49
2022/05/20 04:01:57;;;;;;;8.48;7.30;;;;;;;20.23;59.89;101629.47;5075989;28;20055;-49
2022/05/20 04:04:39;;;;;;;9.13;7.22;;;;;;;20.29;59.89;101631.63;5087194;28;20395;-51
2022/05/20 04:07:09;;;;;;;7.70;6.85;;;;;;;20.34;59.80;101626.75;5080288;28;21937;-51
2022/05/20 04:09:34;;;;;;;8.90;7.10;;;;;;;20.39;59.77;101632.53;5087367;28;20024;-49
2022/05/20 04:12:04;;;;;;;7.75;6.80;;;;;;;20.43;59.67;101640.28;5082165;28;20471;-49
2022/05/20 04:14:30;;;;;;;8.68;7.35;;;;;;;20.44;59.38;101637.47;5085138;28;20073;-50
2022/05/20 04:16:57;;;;;;;9.15;7.55;;;;;;;20.44;59.62;101647.31;5084303;28;20062;-49
2022/05/20 04:19:28;;;;;;;8.70;7.10;;;;;;;20.41;59.49;101654.63;5077414;28;20043;-50
2022/05/20 04:21:56;;;;;;;10.20;7.43;;;;;;;20.43;59.65;101650.97;5081120;28;20028;-49
2022/05/20 04:24:22;;;;;;;11.50;7.30;;;;;;;20.44;59.67;101647.31;5080618;28;20028;-50
2022/05/20 04:26:48;;;;;;;8.27;7.40;;;;;;;20.38;59.75;101654.88;5077020;28;20496;-50
2022/05/20 04:29:14;;;;;;;9.27;7.43;;;;;;;20.35;59.72;101649.78;5072273;28;20080;-51
2022/05/20 04:31:47;;;;;;;8.13;7.28;;;;;;;20.37;60.19;101658.53;5079337;28;20134;-51
2022/05/20 04:34:14;;;;;;;8.57;7.78;;;;;;;20.35;59.92;101655.13;5074115;28;20025;-52
2022/05/20 04:36:39;;;;;;;8.48;7.47;;;;;;;20.33;60.02;101658.94;5074651;28;20036;-51
2022/05/20 04:39:06;;;;;;;8.68;7.43;;;;;;;20.31;60.38;101664.41;5083098;28;20032;-48
2022/05/20 04:47:02;;;;;;;8.05;7.25;;;;;;;20.39;59.98;101664.59;5075905;28;20039;-50
2022/05/20 04:49:30;;;;;;;9.10;7.70;;;;;;;20.47;59.95;101671.97;5086159;28;20148;-48
2022/05/20 04:51:57;;;;;;;8.10;7.28;;;;;;;20.45;59.83;101665.88;5081082;28;20047;-49
2022/05/20 04:57:08;;;;;;;10.20;8.25;;;;;;;20.48;59.79;101664.81;5079119;28;21316;-49
2022/05/20 04:59:38;;;;;;;9.05;7.90;;;;;;;20.49;59.72;101661.16;5072864;28;20090;-49
2022/05/20 05:02:05;;;;;;;7.55;6.78;;;;;;;20.50;59.81;101657.47;5083825;28;20047;-50
2022/05/20 05:04:30;;;;;;;8.50;7.53;;;;;;;20.53;59.76;101657.22;5086072;28;20016;-48
2022/05/20 05:06:56;;;;;;;11.50;7.75;;;;;;;20.51;59.67;101661.84;5087457;28;20071;-50
2022/05/20 05:09:22;;;;;;;9.75;8.18;;;;;;;20.49;59.64;101672.69;5089388;28;20039;-49
2022/05/20 05:11:47;;;;;;;9.35;7.95;;;;;;;20.48;59.81;101670.16;5083329;28;20115;-50
2022/05/20 05:14:16;;;;;;;13.27;8.02;;;;;;;20.45;60.01;101670.41;5087531;28;20174;-50
2022/05/20 05:16:42;;;;;;;10.07;8.45;;;;;;;20.43;59.82;101673.19;5084769;28;20021;-50
2022/05/20 05:19:08;;;;;;;11.68;8.35;;;;;;;20.33;60.41;101683.84;5095263;28;20041;-48
2022/05/20 05:21:34;;;;;;;9.35;8.38;;;;;;;20.29;60.82;101687.75;5094208;28;20111;-50
2022/05/20 05:24:01;;;;;;;10.20;9.15;;;;;;;20.28;60.79;101694.06;5091043;28;20119;-48
2022/05/20 05:26:31;;;;;;;9.43;8.45;;;;;;;20.29;60.73;101698.44;5088071;28;20390;-49
2022/05/20 05:28:57;;;;;;;10.00;8.60;;;;;;;20.30;61.11;101700.13;5087713;28;20039;-49
2022/05/20 05:31:23;;;;;;;10.52;9.20;;;;;;;20.24;61.25;101703.31;5089477;28;20392;-49
2022/05/20 05:33:50;;;;;;;12.82;9.23;;;;;;;20.27;61.08;101705.72;5092696;28;20028;-50
2022/05/20 05:36:16;;;;;;;10.13;9.10;;;;;;;20.25;61.30;101699.66;5090097;28;20131;-51
2022/05/20 05:38:42;;;;;;;13.30;9.60;;;;;;;20.22;61.29;101698.09;5092045;28;20073;-49
2022/05/20 05:41:10;;;;;;;9.55;8.55;;;;;;;20.23;61.36;101693.59;5098465;28;20036;-51
2022/05/20 05:43:35;;;;;;;10.80;9.32;;;;;;;20.26;61.30;101704.03;5090632;28;20035;-50
2022/05/20 05:46:02;;;;;;;10.10;8.93;;;;;;;20.24;61.69;101700.63;5090474;28;20028;-49
2022/05/20 05:48:27;;;;;;;12.27;8.50;;;;;;;20.33;61.11;101699.88;5091847;28;20032;-50
2022/05/20 05:50:55;;;;;;;9.88;8.05;;;;;;;20.43;61.19;101702.59;5096292;28;20025;-50
2022/05/20 05:53:22;;;;;;;10.48;8.85;;;;;;;20.53;60.98;101706.19;5094135;28;20020;-49
2022/05/20 05:55:53;;;;;;;9.20;7.88;;;;;;;20.61;60.43;101702.88;5090987;28;20019;-52
2022/05/20 05:58:18;;;;;;;12.35;9.23;;;;;;;20.61;60.49;101708.22;5092924;28;20498;-52
2022/05/20 06:00:44;;;;;;;10.93;9.05;;;;;;;20.64;60.33;101702.63;5097265;28;20062;-52
2022/05/20 06:03:09;;;;;;;9.38;8.38;;;;;;;20.67;60.37;101706.84;5087492;28;22400;-51
2022/05/20 06:05:35;;;;;;;9.68;8.65;;;;;;;20.71;60.17;101710.97;5096887;28;20032;-51
2022/05/20 06:08:02;;;;;;;11.52;8.98;;;;;;;20.76;60.16;101710.59;5094208;28;20034;-49
2022/05/20 06:10:29;;;;;;;11.05;9.25;;;;;;;20.79;60.09;101711.16;5091474;28;20036;-49
2022/05/20 06:12:57;;;;;;;;;;;;;;;20.78;60.28;101713.97;5088046;28;20432;-49
2022/05/20 06:15:23;;;;;;;9.52;8.60;;;;;;;20.88;61.30;101708.66;5089156;28;20501;-50
2022/05/20 06:17:53;;;;;;;9.57;8.05;;;;;;;20.92;60.43;101713.63;5089560;28;20026;-49
2022/05/20 06:20:22;;;;;;;8.95;8.05;;;;;;;20.99;60.05;101716.63;5089108;28;20028;-49
2022/05/20 06:22:47;;;;;;;9.15;8.02;;;;;;;21.02;59.71;101711.84;5101580;28;20613;-49
2022/05/20 06:25:13;;;;;;;9.13;7.35;;;;;;;21.06;59.15;101717.78;5093759;28;20032;-49
2022/05/20 06:27:39;;;;;;;9.70;8.60;;;;;;;21.10;59.34;101723.72;5092427;28;20039;-49
2022/05/20 06:30:09;;;;;;;8.15;7.35;;;;;;;21.11;59.26;101726.25;5086366;28;20028;-50
2022/05/20 06:32:36;;;;;;;8.02;6.72;;;;;;;21.15;58.38;101722.34;5086594;28;20034;-49
2022/05/20 06:40:45;;;;;;;8.10;6.95;;;;;;;21.15;58.50;101721.47;5091024;28;20387;-49
2022/05/20 06:43:13;;;;;;;7.28;6.57;;;;;;;21.21;58.06;101718.28;5097459;28;20045;-51
2022/05/20 06:45:39;;;;;;;7.43;6.68;;;;;;;21.30;57.65;101720.13;5099051;28;20035;-51
2022/05/20 06:48:05;;;;;;;7.72;6.95;;;;;;;21.36;57.48;101733.97;5088630;28;20036;-50
2022/05/20 06:50:31;;;;;;;6.80;6.07;;;;;;;21.37;57.36;101727.63;5091196;28;20028;-49
2022/05/20 06:52:56;;;;;;;7.05;6.07;;;;;;;21.37;57.07;101724.94;5089905;28;20039;-49
2022/05/20 06:55:22;;;;;;;8.98;6.60;;;;;;;21.40;56.86;101714.81;5088709;28;20069;-50
2022/05/20 06:57:47;;;;;;;7.53;5.80;;;;;;;21.42;57.03;101720.00;5089288;28;20047;-48
2022/05/20 07:00:13;;;;;;;8.38;6.03;;;;;;;21.47;57.08;101715.09;5092364;28;20024;-50
2022/05/20 07:02:39;;;;;;;6.80;6.13;;;;;;;21.50;57.18;101709.47;5093369;28;20472;-49
2022/05/20 07:05:06;;;;;;;7.40;5.82;;;;;;;21.50;57.00;101704.13;5089098;28;20032;-49
2022/05/20 07:07:32;;;;;;;7.22;5.80;;;;;;;21.53;56.56;101705.66;5088152;28;20509;-51
2022/05/20 07:09:58;;;;;;;6.57;5.97;;;;;;;21.54;56.36;101705.56;5090617;28;20036;-49
2022/05/20 07:12:23;;;;;;;9.65;6.63;;;;;;;21.58;55.96;101714.97;5090133;28;20036;-52
2022/05/20 07:14:49;;;;;;;6.78;6.07;;;;;;;21.63;55.84;101711.91;5091151;28;20032;-51
2022/05/20 07:17:19;;;;;;;6.97;5.40;;;;;;;21.70;55.99;101717.59;5093144;28;20028;-49
2022/05/20 07:19:44;;;;;;;6.78;6.07;;;;;;;21.82;55.60;101710.25;5092732;28;20020;-48
2022/05/20 07:22:10;;;;;;;8.80;6.72;;;;;;;21.90;55.14;101711.25;5093428;28;20027;-50
2022/05/20 07:24:37;;;;;;;8.20;6.80;;;;;;;21.96;54.67;101706.34;5087830;28;20074;-49
2022/05/20 07:27:03;;;;;;;7.97;6.97;;;;;;;22.00;54.19;101715.81;5088229;28;20032;-51
2022/05/20 07:29:29;;;;;;;8.05;6.80;;;;;;;21.99;53.65;101698.84;5090780;28;20031;-49
2022/05/20 07:31:54;;;;;;;6.88;6.18;;;;;;;21.97;53.87;101705.34;5099215;28;20023;-50
2022/05/20 07:34:20;;;;;;;7.45;6.72;;;;;;;21.97;53.97;101705.34;5096225;28;20107;-49
2022/05/20 07:36:45;;;;;;;8.40;6.47;;;;;;;21.99;53.78;101706.91;5091956;28;20556;-48
2022/05/20 07:39:11;;;;;;;7.43;6.72;;;;;;;22.06;53.52;101708.03;5081425;28;20154;-50
2022/05/20 07:41:36;;;;;;;8.68;6.75;;;;;;;22.13;52.69;101702.09;5087160;28;20012;-48
2022/05/20 07:44:03;;;;;;;7.60;6.85;;;;;;;22.15;52.88;101706.34;5083508;28;20036;-52
2022/05/20 07:46:28;;;;;;;9.07;7.10;;;;;;;22.18;52.55;101705.22;5092489;28;20122;-51
2022/05/20 07:48:54;;;;;;;13.38;7.25;;;;;;;22.18;51.96;101702.53;5087135;28;20128;-52
2022/05/20 07:51:24;;;;;;;9.02;6.32;;;;;;;22.14;51.85;101696.63;5092750;28;20063;-52
2022/05/20 07:53:51;;;;;;;;;;;;;;;22.16;51.85;101697.28;5087037;28;20028;-50
2022/05/20 07:56:31;;;;;;;7.97;5.88;;;;;;;22.18;51.34;101698.00;5091027;28;19918;-49
2022/05/20 07:59:04;;;;;;;8.98;5.45;;;;;;;22.21;50.97;101686.16;5093631;28;20107;-49
2022/05/20 08:01:34;;;;;;;7.82;5.50;;;;;;;22.25;50.87;101692.09;5088784;28;20032;-50
2022/05/20 08:07:02;;;;;;;8.80;6.07;;;;;;;22.34;50.73;101685.84;5089503;28;20462;-51
2022/05/20 08:09:28;;;;;;;8.13;6.40;;;;;;;22.36;50.88;101686.56;5089218;28;20103;-49
2022/05/20 08:11:53;;;;;;;7.72;6.32;;;;;;;22.35;51.25;101680.38;5085356;28;20123;-49
2022/05/20 08:14:18;;;;;;;8.57;5.75;;;;;;;22.39;51.14;101678.25;5088258;28;20040;-52
2022/05/20 08:16:44;;;;;;;6.40;5.82;;;;;;;22.44;50.96;101692.09;5083474;28;20040;-48
2022/05/20 08:19:09;;;;;;;6.13;5.53;;;;;;;22.46;50.42;101683.91;5089096;28;20038;-48
2022/05/20 08:21:35;;;;;;;8.27;4.55;;;;;;;22.41;49.29;101689.66;5098246;28;20428;-49
2022/05/20 08:24:01;;;;;;;8.65;4.53;;;;;;;22.39;48.92;101686.28;5089619;28;20044;-49
2022/05/20 08:26:26;;;;;;;5.43;4.90;;;;;;;22.38;48.71;101687.28;5088427;28;20012;-49
2022/05/20 08:28:52;;;;;;;16.20;9.07;;;;;;;22.36;48.59;101683.88;5086331;28;20081;-52
2022/05/20 08:31:17;;;;;;;8.73;4.68;;;;;;;22.34;48.58;101691.22;5084573;28;20234;-49
2022/05/20 08:33:43;;;;;;;5.43;4.03;;;;;;;22.30;48.04;101690.66;5092378;28;20027;-50
2022/05/20 08:36:09;;;;;;;8.82;5.40;;;;;;;22.31;48.53;101694.22;5087585;28;20036;-49
2022/05/20 08:38:35;;;;;;;9.27;5.13;;;;;;;22.32;49.23;101686.00;5089409;28;20027;-51
2022/05/20 08:41:01;;;;;;;6.55;4.80;;;;;;;22.35;49.05;101704.50;5081783;28;24115;-49
2022/05/20 08:43:31;;;;;;;4.57;4.15;;;;;;;22.39;47.80;101703.19;5092175;28;20394;-49
2022/05/20 08:45:57;;;;;;;;;;;;;;;22.43;48.25;101714.53;5091216;28;20084;-49
2022/05/20 08:48:22;;;;;;;4.88;4.07;;;;;;;22.45;47.71;101682.22;5085088;28;19916;-50
2022/05/20 08:50:50;;;;;;;5.35;3.90;;;;;;;22.49;47.25;101679.09;5085400;28;20054;-48
2022/05/20 08:53:25;;;;;;;6.75;3.45;;;;;;;22.50;46.97;101686.16;5084869;28;20404;-48
2022/05/20 08:55:50;;;;;;;6.80;3.50;;;;;;;22.45;45.42;101679.53;5088981;28;20038;-49
2022/05/20 08:58:20;;;;;;;5.15;3.40;;;;;;;22.52;45.34;101684.16;5092739;28;20024;-50
2022/05/20 09:00:45;;;;;;;5.85;3.38;;;;;;;22.62;45.67;101683.28;5096160;28;20032;-49
2022/05/20 09:03:12;;;;;;;4.40;3.67;;;;;;;22.68;45.64;101669.31;5094974;28;20028;-49
2022/05/20 09:05:40;;;;;;;6.90;3.45;;;;;;;22.75;45.41;101672.25;5087135;28;20043;-49
2022/05/20 09:08:14;;;;;;;8.45;5.88;;;;;;;22.79;45.97;101669.13;5088548;28;20056;-49
2022/05/20 09:10:47;;;;;;;5.20;3.67;;;;;;;22.87;46.50;101673.75;5089726;28;20063;-50
2022/05/20 09:16:29;;;;;;;8.75;4.13;;;;;;;22.97;46.48;101665.66;5088293;28;20043;-49
2022/05/20 09:19:24;;;;;;;6.72;4.03;;;;;;;22.98;46.14;101659.31;5085188;28;20036;-48
2022/05/20 09:22:05;;;;;;;5.63;3.58;;;;;;;22.95;46.02;101656.91;5089400;28;20028;-50
2022/05/20 09:24:43;;;;;;;4.03;3.22;;;;;;;22.99;45.91;101653.78;5089885;28;20024;-48
2022/05/20 09:27:13;;;;;;;3.70;3.40;;;;;;;23.03;45.28;101665.09;5085145;28;20507;-49
2022/05/20 09:29:54;;;;;;;5.53;3.28;;;;;;;23.05;44.02;101652.38;5088192;28;20031;-49
2022/05/20 09:32:33;;;;;;;3.75;3.17;;;;;;;23.03;44.31;101667.78;5091658;28;20066;-53
2022/05/20 09:35:20;;;;;;;3.22;2.80;;;;;;;23.01;43.60;101653.66;5082948;28;20047;-49
2022/05/20 09:37:51;;;;;;;4.68;3.13;;;;;;;22.96;43.70;101662.16;5086724;28;20498;-52
2022/05/20 09:40:39;;;;;;;4.80;2.90;;;;;;;22.92;43.47;101662.56;5084667;28;20036;-49
2022/05/20 09:43:25;;;;;;;5.35;2.95;;;;;;;22.89;43.57;101660.22;5082836;28;20115;-49
2022/05/20 09:45:52;;;;;;;5.78;2.72;;;;;;;22.88;43.26;101650.47;5093670;28;20106;-48
2022/05/20 09:48:36;;;;;;;6.72;3.42;;;;;;;22.95;43.37;101662.28;5085409;28;20025;-49
2022/05/20 09:51:25;;;;;;;6.85;3.25;;;;;;;23.01;43.87;101664.38;5092645;28;20475;-50
2022/05/20 09:54:29;;;;;;;3.00;2.67;;;;;;;23.10;43.31;101655.44;5088866;28;20082;-49
2022/05/20 09:57:06;;;;;;;5.60;2.92;;;;;;;23.24;42.92;101661.31;5071518;28;20028;-49
2022/05/20 09:59:43;;;;;;;4.00;3.10;;;;;;;23.32;42.99;101657.88;5085737;28;20043;-49
2022/05/20 10:02:25;;;;;;;6.20;3.40;;;;;;;23.35;43.33;101663.81;5090867;28;20036;-49
2022/05/20 10:05:08;;;;;;;3.85;3.22;;;;;;;23.34;43.96;101662.13;5085236;28;20020;-52
2022/05/20 10:07:37;;;;;;;4.95;3.47;;;;;;;23.31;44.18;101661.56;5089895;28;20024;-49
2022/05/20 10:10:10;;;;;;;4.80;3.60;;;;;;;23.29;43.91;101656.34;5093311;28;20020;-49
2022/05/20 10:12:38;;;;;;;6.30;3.78;;;;;;;23.29;43.73;101653.66;5088915;28;20032;-49
2022/05/20 10:15:12;;;;;;;5.75;2.80;;;;;;;23.30;43.09;101652.69;5089415;28;20040;-50
2022/05/20 10:17:49;;;;;;;5.38;2.90;;;;;;;23.31;42.40;101643.63;5092094;28;20024;-49
2022/05/20 10:20:20;;;;;;;3.63;3.00;;;;;;;23.32;42.41;101639.94;5089076;28;20102;-49
2022/05/20 10:22:45;;;;;;;3.70;3.17;;;;;;;23.34;42.27;101645.16;5093800;28;20379;-48
2022/05/20 10:25:26;;;;;;;3.08;2.80;;;;;;;23.29;42.00;101637.56;5092218;28;20035;-50
2022/05/20 10:28:13;;;;;;;4.22;2.78;;;;;;;23.28;42.76;101626.00;5091855;28;20024;-49
2022/05/20 10:33:39;;;;;;;5.40;3.05;;;;;;;23.42;42.75;101621.09;5090494;28;20085;-49
2022/05/20 10:36:22;;;;;;;7.80;3.05;;;;;;;23.43;42.62;101617.41;5090361;28;20032;-50
2022/05/20 10:39:19;;;;;;;5.25;3.10;;;;;;;23.44;42.75;101606.50;5083939;28;20036;-50
2022/05/20 10:42:22;;;;;;;5.78;3.10;;;;;;;23.50;42.92;101607.72;5063227;28;20100;-49
2022/05/20 10:48:49;;;;;;;5.25;2.72;;;;;;;23.47;42.13;101601.84;5028705;28;20048;-49
2022/05/20 10:51:24;;;;;;;9.43;2.60;;;;;;;23.47;41.36;101609.88;5026041;28;20090;-51
2022/05/20 10:53:57;;;;;;;2.80;2.50;;;;;;;23.46;41.34;101600.97;5081575;28;20344;-52
2022/05/20 10:56:48;;;;;;;6.75;2.80;;;;;;;23.45;41.26;101599.28;5090196;28;20092;-53
2022/05/20 10:59:51;;;;;;;4.20;2.70;;;;;;;23.47;41.12;101599.97;5088562;28;20020;-49
2022/05/20 11:02:22;;;;;;;5.15;2.70;;;;;;;23.47;41.10;101594.59;5091551;28;20089;-48
2022/05/20 11:04:58;;;;;;;3.67;2.47;;;;;;;23.46;41.65;101594.78;5091647;28;20073;-49
2022/05/20 11:07:46;;;;;;;4.47;2.70;;;;;;;23.48;41.23;101611.56;5089821;28;20028;-49
2022/05/20 11:10:34;;;;;;;5.70;2.42;;;;;;;23.49;40.37;101610.59;5093967;28;20665;-49
2022/05/20 11:13:11;;;;;;;5.68;2.42;;;;;;;23.48;40.19;101614.25;5086769;28;20051;-49
2022/05/20 11:16:03;;;;;;;3.58;2.50;;;;;;;23.43;39.74;101606.66;5090212;28;20475;-49
2022/05/20 11:18:46;;;;;;;2.78;2.58;;;;;;;23.42;40.05;101603.13;5083005;28;20295;-50
2022/05/20 11:21:45;;;;;;;3.67;2.70;;;;;;;23.47;40.13;101607.19;5090579;28;20032;-51
2022/05/20 11:24:32;;;;;;;5.93;2.60;;;;;;;23.53;40.73;101610.13;5085930;28;20064;-49
2022/05/20 11:27:30;;;;;;;3.35;2.70;;;;;;;23.59;40.77;101598.78;5087312;28;20028;-49
2022/05/20 11:30:32;;;;;;;3.50;2.63;;;;;;;23.68;40.87;101593.47;5019107;28;20120;-50
2022/05/20 11:33:25;;;;;;;3.33;2.33;;;;;;;23.72;40.64;101593.00;5092634;28;20099;-49
2022/05/20 11:36:01;;;;;;;3.45;2.60;;;;;;;23.78;40.28;101594.22;5094740;28;20024;-50
2022/05/20 11:38:40;;;;;;;3.90;2.55;;;;;;;23.82;40.25;101600.13;5096338;28;20020;-50
2022/05/20 11:41:37;;;;;;;3.22;2.17;;;;;;;23.79;39.26;101589.69;5086384;28;20367;-50
2022/05/20 11:44:06;;;;;;;3.83;2.60;;;;;;;23.79;39.29;101573.56;5097956;28;20035;-50
2022/05/20 11:46:50;;;;;;;3.83;2.20;;;;;;;23.81;39.04;101568.91;5094808;28;20028;-49
2022/05/20 11:49:34;;;;;;;2.97;2.10;;;;;;;23.87;39.14;101570.94;5080820;28;20028;-52
2022/05/20 11:52:11;;;;;;;3.33;2.15;;;;;;;23.88;39.30;101559.19;5083938;28;20092;-49
2022/05/20 11:54:43;;;;;;;3.13;2.03;;;;;;;23.96;39.01;101553.91;5085669;28;20066;-48
2022/05/20 11:57:17;;;;;;;3.40;2.00;;;;;;;24.05;38.67;101561.03;5088989;28;20039;-51
2022/05/20 12:00:05;;;;;;;6.55;2.08;;;;;;;24.11;38.45;101561.41;5084353;28;20107;-50
2022/05/20 12:02:43;;;;;;;3.85;2.30;;;;;;;24.10;38.11;101555.16;5086976;28;20115;-48
2022/05/20 12:05:16;;;;;;;3.33;2.10;;;;;;;24.13;38.39;101554.84;5092207;28;20043;-49
2022/05/20 12:07:42;;;;;;;3.97;2.20;;;;;;;24.18;38.49;101557.06;5081264;28;20093;-54
2022/05/20 12:10:35;;;;;;;4.38;2.30;;;;;;;24.26;38.29;101554.44;5078453;28;20480;-50
2022/05/20 12:13:20;;;;;;;4.93;2.42;;;;;;;24.31;38.09;101546.72;5081803;28;20074;-49
2022/05/20 12:16:09;;;;;;;3.95;2.38;;;;;;;24.36;37.98;101532.78;5088367;28;20028;-49